Mooresville, Alabama
Current Conditions -  °F | °C
As of 5:53 AM on Monday 22 Dec 2014 (Local Time) from KDCU Reporting Station
Haze Haze  
Wind Chill: 45°   Ceiling: 1000
Heat Index: 48°   Visibility: 5mi
Dew Point: 46°   Wind: 7mph
Humidity: 93%   Direction: 130°SE
Pressure: 29.96"   Gusts: NA
Location:  34.63°N, 86.88°W
Report Text: KDCU 221153Z AUTO 13006KT 5SM BR OVC010 09/08 A2996 RMK AO2 CIG 007V012 SLP147 T00890078 10100 20089 58003 $
Loading
Personal Weather Stations






























Interactive Weather Map New forecast layout! Learn more

10-Day Weather Forecast

Advertisements
Track Severe Weather on mobile